Time;durP1;ratioP1;P1;durP2;ratioP2;P2;SDS_P1;SDS_P2;PMS_P1;PMS_P2;Temp;Humidity;BMP_temperature;BMP_pressure;BME280_temperature;BME280_humidity;BME280_pressure;Samples;Min_cycle;Max_cycle;Signal;HPM_P1;HPM_P2
2023/11/07 00:00:06;;;;;;;15.85;7.70;;;12.40;55.80;;;;;;345455;28;1075;-60
2023/11/07 00:00:17;;;;;;;14.57;7.53;;;12.40;55.80;;;;;;345458;28;945;-58
2023/11/07 00:00:28;;;;;;;15.23;7.47;;;12.40;55.80;;;;;;345488;28;929;-58
2023/11/07 00:00:39;;;;;;;15.52;7.18;;;12.40;55.80;;;;;;345380;28;1276;-60
2023/11/07 00:00:50;;;;;;;14.82;6.47;;;12.40;55.70;;;;;;345500;28;993;-58
2023/11/07 00:01:00;;;;;;;13.25;6.28;;;12.40;55.70;;;;;;345680;28;2659;-59
2023/11/07 00:01:11;;;;;;;11.38;6.03;;;12.40;55.60;;;;;;345652;28;1022;-59
2023/11/07 00:01:22;;;;;;;9.77;5.60;;;12.40;55.50;;;;;;345756;28;901;-58
2023/11/07 00:01:33;;;;;;;10.20;5.25;;;12.40;55.40;;;;;;345731;28;1846;-58
2023/11/07 00:01:44;;;;;;;9.73;5.20;;;12.40;55.40;;;;;;345675;28;988;-58
2023/11/07 00:01:54;;;;;;;8.57;4.93;;;12.40;55.30;;;;;;345767;28;953;-58
2023/11/07 00:02:06;;;;;;;8.27;4.63;;;12.40;55.20;;;;;;345696;28;1163;-58
2023/11/07 00:02:16;;;;;;;9.18;4.53;;;12.40;55.10;;;;;;345689;28;900;-58
2023/11/07 00:02:27;;;;;;;9.57;4.70;;;12.40;55.00;;;;;;345798;28;980;-58
2023/11/07 00:02:38;;;;;;;9.88;4.93;;;12.40;55.00;;;;;;345728;28;1087;-58
2023/11/07 00:02:53;;;;;;;10.25;5.07;;;12.40;54.90;;;;;;345723;28;1054;-57
2023/11/07 00:03:03;;;;;;;9.25;4.90;;;12.40;54.90;;;;;;345784;28;1074;-58
2023/11/07 00:03:14;;;;;;;7.68;4.78;;;12.40;54.80;;;;;;345720;28;1091;-59
2023/11/07 00:03:25;;;;;;;8.50;5.05;;;12.40;54.70;;;;;;345705;28;1891;-59
2023/11/07 00:03:35;;;;;;;9.70;5.20;;;12.40;54.70;;;;;;345770;28;1003;-58
2023/11/07 00:03:46;;;;;;;9.57;5.27;;;12.40;54.70;;;;;;345720;28;2467;-58
2023/11/07 00:04:00;;;;;;;8.98;5.07;;;12.40;54.80;;;;;;345712;28;891;-58
2023/11/07 00:04:10;;;;;;;9.77;5.22;;;12.40;55.00;;;;;;345756;28;1182;-58
2023/11/07 00:04:21;;;;;;;11.13;5.43;;;12.50;55.00;;;;;;345759;28;1011;-58
2023/11/07 00:04:32;;;;;;;11.13;5.50;;;12.50;55.10;;;;;;345665;28;1032;-58
2023/11/07 00:04:42;;;;;;;10.05;5.57;;;12.50;55.10;;;;;;345764;28;992;-58
2023/11/07 00:04:54;;;;;;;9.35;5.70;;;12.40;55.10;;;;;;345746;28;1011;-58
2023/11/07 00:05:05;;;;;;;9.38;5.40;;;12.50;55.20;;;;;;345734;28;1143;-57
2023/11/07 00:05:16;;;;;;;9.00;5.07;;;12.40;55.20;;;;;;345784;28;913;-58
2023/11/07 00:05:26;;;;;;;8.35;4.80;;;12.40;55.20;;;;;;345841;28;884;-58
2023/11/07 00:05:37;;;;;;;9.43;5.07;;;12.40;55.20;;;;;;345638;28;1917;-58
2023/11/07 00:05:48;;;;;;;11.50;6.80;;;12.40;55.10;;;;;;345778;28;857;-57
2023/11/07 00:05:59;;;;;;;15.07;8.63;;;12.40;55.00;;;;;;345749;28;1021;-58
2023/11/07 00:06:09;;;;;;;15.02;9.07;;;12.40;54.90;;;;;;345677;28;1880;-59
2023/11/07 00:06:20;;;;;;;13.82;8.15;;;12.40;54.90;;;;;;345758;28;800;-59
2023/11/07 00:06:31;;;;;;;12.13;7.78;;;12.40;54.90;;;;;;345729;28;1155;-59
2023/11/07 00:06:42;;;;;;;13.73;8.10;;;12.40;55.00;;;;;;345662;28;927;-57
2023/11/07 00:06:52;;;;;;;15.18;8.50;;;12.40;54.90;;;;;;345739;28;1603;-57
2023/11/07 00:07:04;;;;;;;18.83;9.88;;;12.40;55.00;;;;;;345762;28;817;-57
2023/11/07 00:07:15;;;;;;;23.23;12.38;;;12.40;55.00;;;;;;345687;28;872;-57
2023/11/07 00:07:26;;;;;;;26.13;14.03;;;12.40;54.90;;;;;;345739;28;853;-59
2023/11/07 00:07:37;;;;;;;29.77;16.30;;;12.40;55.00;;;;;;345743;28;1127;-57
2023/11/07 00:07:48;;;;;;;31.17;17.58;;;12.40;55.00;;;;;;345661;28;1213;-59
2023/11/07 00:07:59;;;;;;;32.13;18.42;;;12.40;54.90;;;;;;345768;28;1071;-58
2023/11/07 00:08:09;;;;;;;30.85;17.73;;;12.40;54.90;;;;;;345810;28;965;-58
2023/11/07 00:08:20;;;;;;;30.60;16.55;;;12.40;54.80;;;;;;345705;28;947;-58
2023/11/07 00:08:31;;;;;;;28.53;15.80;;;12.40;54.70;;;;;;345743;28;1141;-58
2023/11/07 00:08:42;;;;;;;27.80;15.30;;;12.40;54.70;;;;;;345697;28;1318;-58
2023/11/07 00:08:53;;;;;;;26.60;14.68;;;12.40;54.70;;;;;;345732;28;896;-57
2023/11/07 00:09:03;;;;;;;26.33;13.85;;;12.40;54.70;;;;;;345757;28;1035;-58
2023/11/07 00:09:15;;;;;;;23.83;12.80;;;12.40;54.70;;;;;;345681;28;1147;-59
2023/11/07 00:09:26;;;;;;;22.15;11.70;;;12.40;54.70;;;;;;345664;28;1006;-57
2023/11/07 00:09:37;;;;;;;20.08;11.00;;;12.40;54.60;;;;;;345706;28;981;-57
2023/11/07 00:09:49;;;;;;;16.95;9.88;;;12.40;54.50;;;;;;345784;28;858;-58
2023/11/07 00:10:00;;;;;;;17.30;9.25;;;12.40;54.50;;;;;;345744;28;1006;-58
2023/11/07 00:10:11;;;;;;;17.90;9.20;;;12.40;54.50;;;;;;345734;28;1028;-59
2023/11/07 00:10:27;;;;;;;18.60;9.60;;;12.40;54.50;;;;;;345758;28;1139;-59
2023/11/07 00:10:38;;;;;;;16.75;9.90;;;12.40;54.50;;;;;;345734;28;1095;-57
2023/11/07 00:10:49;;;;;;;16.73;10.13;;;12.40;54.50;;;;;;345745;28;1198;-58
2023/11/07 00:11:00;;;;;;;17.03;10.27;;;12.40;54.50;;;;;;345572;28;1438;-57
2023/11/07 00:11:11;;;;;;;17.00;9.98;;;12.40;54.50;;;;;;345763;28;1118;-57
2023/11/07 00:11:21;;;;;;;16.93;9.43;;;12.40;54.60;;;;;;345764;28;941;-57
2023/11/07 00:11:32;;;;;;;17.08;9.13;;;12.40;54.60;;;;;;345618;28;1099;-59
2023/11/07 00:11:43;;;;;;;17.02;8.82;;;12.40;54.60;;;;;;345686;28;842;-58
2023/11/07 00:11:53;;;;;;;15.15;8.45;;;12.40;54.60;;;;;;345666;28;1174;-58
2023/11/07 00:12:05;;;;;;;13.70;8.17;;;12.40;54.60;;;;;;345685;28;1227;-59
2023/11/07 00:12:16;;;;;;;13.88;8.25;;;12.30;54.60;;;;;;345745;28;917;-57
2023/11/07 00:12:27;;;;;;;14.02;8.20;;;12.40;54.60;;;;;;345747;28;1055;-57
2023/11/07 00:12:38;;;;;;;14.55;8.02;;;12.40;54.60;;;;;;345685;28;976;-57
2023/11/07 00:12:50;;;;;;;14.03;7.73;;;12.40;54.60;;;;;;345817;28;1032;-59
2023/11/07 00:13:01;;;;;;;13.25;7.38;;;12.40;54.60;;;;;;345734;28;1141;-59
2023/11/07 00:13:12;;;;;;;12.63;7.07;;;12.40;54.60;;;;;;345652;28;896;-57
2023/11/07 00:13:23;;;;;;;12.25;7.05;;;12.40;54.60;;;;;;345737;28;1087;-58
2023/11/07 00:13:34;;;;;;;13.35;7.32;;;12.40;54.70;;;;;;345814;28;1031;-57
2023/11/07 00:13:45;;;;;;;12.90;7.57;;;12.40;54.70;;;;;;345640;28;1112;-56
2023/11/07 00:13:55;;;;;;;12.82;7.22;;;12.30;54.60;;;;;;345758;28;1024;-56
2023/11/07 00:14:06;;;;;;;11.80;6.97;;;12.40;54.70;;;;;;345764;28;1035;-57
2023/11/07 00:14:21;;;;;;;13.50;7.00;;;12.30;54.70;;;;;;345637;28;1020;-58
2023/11/07 00:14:32;;;;;;;13.57;7.10;;;12.40;54.80;;;;;;345682;28;1949;-57
2023/11/07 00:14:43;;;;;;;12.95;6.95;;;12.40;55.00;;;;;;345733;28;869;-56
2023/11/07 00:14:53;;;;;;;13.63;7.00;;;12.40;55.00;;;;;;345695;28;884;-56
2023/11/07 00:15:05;;;;;;;13.77;6.82;;;12.40;55.10;;;;;;345779;28;984;-57
2023/11/07 00:15:15;;;;;;;13.70;7.18;;;12.40;55.10;;;;;;345707;28;1020;-58
2023/11/07 00:15:26;;;;;;;13.23;7.28;;;12.40;55.10;;;;;;345694;28;930;-58
2023/11/07 00:15:37;;;;;;;13.15;7.10;;;12.30;55.10;;;;;;345683;28;1610;-59
2023/11/07 00:15:47;;;;;;;12.18;6.82;;;12.30;55.00;;;;;;345693;28;985;-59
2023/11/07 00:15:58;;;;;;;12.50;7.03;;;12.30;55.00;;;;;;345607;28;2499;-58
2023/11/07 00:16:12;;;;;;;12.03;7.20;;;12.30;55.00;;;;;;345735;28;1087;-59
2023/11/07 00:16:23;;;;;;;11.73;6.90;;;12.30;55.00;;;;;;345674;28;1033;-57
2023/11/07 00:16:34;;;;;;;11.55;6.97;;;12.30;55.00;;;;;;345658;28;1166;-57
2023/11/07 00:16:45;;;;;;;12.52;7.13;;;12.30;54.90;;;;;;345808;28;857;-59
2023/11/07 00:16:56;;;;;;;15.05;7.72;;;12.30;54.90;;;;;;345687;28;1059;-59
2023/11/07 00:17:06;;;;;;;15.32;7.57;;;12.30;54.90;;;;;;345620;28;992;-57
2023/11/07 00:17:18;;;;;;;14.52;7.40;;;12.30;54.90;;;;;;345743;28;1957;-57
2023/11/07 00:17:29;;;;;;;12.30;6.80;;;12.30;54.90;;;;;;345747;28;896;-57
2023/11/07 00:17:40;;;;;;;11.88;6.90;;;12.30;54.90;;;;;;345670;28;1020;-57
2023/11/07 00:17:51;;;;;;;13.87;6.77;;;12.30;54.90;;;;;;345728;28;1083;-57
2023/11/07 00:18:02;;;;;;;13.20;6.60;;;12.30;54.90;;;;;;345746;28;1024;-59
2023/11/07 00:18:12;;;;;;;14.35;6.75;;;12.30;54.90;;;;;;345758;28;976;-57
2023/11/07 00:18:23;;;;;;;12.70;6.70;;;12.30;54.90;;;;;;345680;28;1171;-57
2023/11/07 00:18:34;;;;;;;13.07;6.85;;;12.30;54.90;;;;;;345736;28;877;-57
2023/11/07 00:18:46;;;;;;;12.97;6.83;;;12.40;55.00;;;;;;345627;28;1103;-57
2023/11/07 00:18:57;;;;;;;12.50;6.57;;;12.40;55.10;;;;;;345733;28;1039;-58
2023/11/07 00:19:08;;;;;;;11.52;6.57;;;12.40;55.30;;;;;;345783;28;1074;-57
2023/11/07 00:19:18;;;;;;;11.00;6.43;;;12.40;55.30;;;;;;345568;28;1922;-58
2023/11/07 00:19:29;;;;;;;10.73;6.67;;;12.30;55.40;;;;;;345774;28;948;-56
2023/11/07 00:19:40;;;;;;;10.38;6.32;;;12.40;55.40;;;;;;345678;28;1435;-58
2023/11/07 00:19:51;;;;;;;11.32;6.00;;;12.30;55.40;;;;;;345648;28;1161;-56
2023/11/07 00:20:01;;;;;;;12.25;6.07;;;12.40;55.40;;;;;;345677;28;1155;-59
2023/11/07 00:20:12;;;;;;;11.00;5.87;;;12.40;55.40;;;;;;345726;28;1094;-59
2023/11/07 00:20:23;;;;;;;11.75;6.20;;;12.40;55.50;;;;;;345631;28;1115;-57
2023/11/07 00:20:34;;;;;;;11.38;6.07;;;12.40;55.50;;;;;;345775;28;1035;-57
2023/11/07 00:20:44;;;;;;;11.52;6.15;;;12.30;55.60;;;;;;345677;28;1748;-57
2023/11/07 00:20:56;;;;;;;9.40;5.97;;;12.40;55.60;;;;;;345635;28;1046;-57
2023/11/07 00:21:07;;;;;;;8.63;5.65;;;12.40;55.70;;;;;;345785;28;872;-57
2023/11/07 00:21:18;;;;;;;9.57;5.80;;;12.40;55.70;;;;;;345744;28;1090;-57
2023/11/07 00:21:28;;;;;;;11.23;6.20;;;12.30;55.60;;;;;;345617;28;1083;-57
2023/11/07 00:21:39;;;;;;;12.40;6.30;;;12.40;55.60;;;;;;345738;28;799;-57
2023/11/07 00:21:50;;;;;;;11.05;5.88;;;12.40;55.60;;;;;;345741;28;1078;-57
2023/11/07 00:22:01;;;;;;;9.88;5.78;;;12.40;55.70;;;;;;345690;28;1032;-59
2023/11/07 00:22:13;;;;;;;8.80;5.83;;;12.40;55.80;;;;;;345741;28;956;-57
2023/11/07 00:22:24;;;;;;;10.43;5.93;;;12.40;55.90;;;;;;345720;28;1119;-58
2023/11/07 00:22:35;;;;;;;12.40;6.00;;;12.40;55.90;;;;;;345695;28;1026;-59
2023/11/07 00:22:45;;;;;;;12.90;6.15;;;12.40;55.90;;;;;;345752;28;1039;-59
2023/11/07 00:22:57;;;;;;;11.73;6.07;;;12.40;55.90;;;;;;345702;28;1335;-58
2023/11/07 00:23:08;;;;;;;9.93;5.93;;;12.40;55.90;;;;;;345658;28;1071;-58
2023/11/07 00:23:20;;;;;;;10.85;5.75;;;12.40;56.00;;;;;;345742;28;1000;-59
2023/11/07 00:23:30;;;;;;;10.85;6.03;;;12.40;56.00;;;;;;345653;28;1024;-58
2023/11/07 00:23:41;;;;;;;10.50;6.07;;;12.40;56.10;;;;;;345621;28;1354;-58
2023/11/07 00:23:52;;;;;;;9.38;6.05;;;12.40;56.10;;;;;;345742;28;862;-58
2023/11/07 00:24:03;;;;;;;9.88;5.95;;;12.40;56.20;;;;;;345728;28;957;-58
2023/11/07 00:24:16;;;;;;;10.52;6.10;;;12.40;56.20;;;;;;345732;28;1027;-58
2023/11/07 00:24:27;;;;;;;11.27;6.28;;;12.40;56.20;;;;;;345694;28;1095;-58
2023/11/07 00:24:38;;;;;;;10.30;6.10;;;12.30;56.10;;;;;;345790;28;900;-58
2023/11/07 00:24:49;;;;;;;10.00;6.27;;;12.30;56.00;;;;;;345630;28;1074;-58
2023/11/07 00:25:00;;;;;;;10.07;6.15;;;12.40;56.00;;;;;;345766;28;1036;-59
2023/11/07 00:25:12;;;;;;;10.98;6.60;;;12.30;55.90;;;;;;345759;28;929;-58
2023/11/07 00:25:25;;;;;;;11.77;6.77;;;12.30;55.80;;;;;;345630;28;1549;-59
2023/11/07 00:25:36;;;;;;;13.18;7.18;;;12.30;55.70;;;;;;345749;28;825;-59
2023/11/07 00:25:46;;;;;;;12.68;6.93;;;12.30;55.60;;;;;;345791;28;862;-58
2023/11/07 00:25:57;;;;;;;14.25;6.75;;;12.30;55.60;;;;;;345635;28;988;-59
2023/11/07 00:26:08;;;;;;;13.95;6.55;;;12.30;55.60;;;;;;345680;28;1151;-59
2023/11/07 00:26:20;;;;;;;13.60;6.90;;;12.30;55.50;;;;;;345693;28;858;-59
2023/11/07 00:26:30;;;;;;;11.43;6.72;;;12.30;55.50;;;;;;345654;28;1147;-58
2023/11/07 00:26:41;;;;;;;10.90;6.67;;;12.30;55.50;;;;;;345746;28;960;-58
2023/11/07 00:26:53;;;;;;;11.00;6.43;;;12.30;55.50;;;;;;345707;28;1020;-58
2023/11/07 00:27:04;;;;;;;12.27;6.80;;;12.30;55.50;;;;;;345549;28;1474;-57
2023/11/07 00:27:17;;;;;;;12.48;6.85;;;12.30;55.40;;;;;;345818;28;853;-58
2023/11/07 00:27:28;;;;;;;11.52;6.68;;;12.30;55.30;;;;;;345751;28;1106;-59
2023/11/07 00:27:39;;;;;;;10.98;6.60;;;12.30;55.30;;;;;;345617;28;1043;-57
2023/11/07 00:27:49;;;;;;;10.88;6.63;;;12.30;55.30;;;;;;345733;28;1099;-57
2023/11/07 00:28:00;;;;;;;11.03;6.73;;;12.30;55.30;;;;;;345784;28;940;-59
2023/11/07 00:28:11;;;;;;;10.53;6.60;;;12.30;55.30;;;;;;345637;28;1904;-57
2023/11/07 00:28:22;;;;;;;13.13;6.85;;;12.30;55.20;;;;;;345716;28;1317;-57
2023/11/07 00:28:32;;;;;;;15.85;7.00;;;12.30;55.20;;;;;;345745;28;1092;-59
2023/11/07 00:28:43;;;;;;;16.23;7.25;;;12.30;55.20;;;;;;345587;28;972;-59
2023/11/07 00:28:54;;;;;;;12.63;7.00;;;12.40;55.30;;;;;;345691;28;1151;-57
2023/11/07 00:29:07;;;;;;;12.65;6.70;;;12.30;55.40;;;;;;345738;28;1040;-58
2023/11/07 00:29:18;;;;;;;12.50;6.60;;;12.30;55.40;;;;;;345682;28;1024;-57
2023/11/07 00:29:29;;;;;;;11.95;7.10;;;12.30;55.40;;;;;;345766;28;988;-59
2023/11/07 00:29:39;;;;;;;14.38;8.77;;;12.30;55.40;;;;;;345718;28;875;-57
2023/11/07 00:29:50;;;;;;;17.52;10.85;;;12.30;55.40;;;;;;345614;28;1182;-57
2023/11/07 00:30:01;;;;;;;20.58;11.88;;;12.30;55.40;;;;;;345710;28;871;-59
2023/11/07 00:30:12;;;;;;;20.30;11.10;;;12.30;55.40;;;;;;345674;28;1024;-58
2023/11/07 00:30:23;;;;;;;16.98;9.52;;;12.30;55.40;;;;;;345643;28;1052;-58
2023/11/07 00:30:33;;;;;;;14.05;8.32;;;12.30;55.40;;;;;;345717;28;1023;-58
2023/11/07 00:30:44;;;;;;;12.83;7.73;;;12.30;55.40;;;;;;345717;28;1785;-58
2023/11/07 00:30:55;;;;;;;12.63;7.13;;;12.30;55.40;;;;;;345713;28;913;-59
2023/11/07 00:31:06;;;;;;;10.90;6.30;;;12.30;55.40;;;;;;345648;28;965;-58
2023/11/07 00:31:16;;;;;;;9.75;5.78;;;12.30;55.30;;;;;;345743;28;1032;-58
2023/11/07 00:31:27;;;;;;;9.07;5.57;;;12.30;55.10;;;;;;345734;28;980;-59
2023/11/07 00:31:38;;;;;;;9.27;5.83;;;12.30;55.10;;;;;;345675;28;1868;-57
2023/11/07 00:31:52;;;;;;;9.45;5.78;;;12.30;54.90;;;;;;345631;28;888;-57
2023/11/07 00:32:03;;;;;;;10.13;5.57;;;12.30;54.90;;;;;;345815;28;936;-57
2023/11/07 00:32:14;;;;;;;10.07;5.35;;;12.30;54.80;;;;;;345711;28;1078;-57
2023/11/07 00:32:25;;;;;;;9.35;5.10;;;12.30;54.60;;;;;;345623;28;1028;-57
2023/11/07 00:32:36;;;;;;;8.73;4.80;;;12.30;54.30;;;;;;345691;28;862;-58
2023/11/07 00:32:47;;;;;;;10.18;5.10;;;12.40;54.30;;;;;;345797;28;849;-58
2023/11/07 00:32:57;;;;;;;10.65;5.53;;;12.30;54.20;;;;;;345637;28;984;-60
2023/11/07 00:33:08;;;;;;;10.60;5.70;;;12.30;54.20;;;;;;345751;28;802;-57
2023/11/07 00:33:19;;;;;;;9.80;5.63;;;12.30;54.20;;;;;;345721;28;1047;-59
2023/11/07 00:33:29;;;;;;;9.40;5.73;;;12.30;54.30;;;;;;345733;28;1067;-58
2023/11/07 00:33:40;;;;;;;9.73;6.10;;;12.40;54.50;;;;;;345668;28;1004;-58
2023/11/07 00:33:51;;;;;;;10.68;6.28;;;12.30;54.70;;;;;;345725;28;1069;-58
2023/11/07 00:34:02;;;;;;;11.23;6.50;;;12.30;54.80;;;;;;345707;28;993;-58
2023/11/07 00:34:16;;;;;;;11.20;6.77;;;12.40;54.90;;;;;;345678;28;1178;-58
2023/11/07 00:34:27;;;;;;;10.57;6.65;;;12.40;55.00;;;;;;345569;28;1485;-58
2023/11/07 00:34:40;;;;;;;10.27;6.30;;;12.40;55.00;;;;;;345709;28;1131;-58
2023/11/07 00:34:50;;;;;;;10.98;6.63;;;12.40;55.00;;;;;;345750;28;985;-57
2023/11/07 00:35:02;;;;;;;11.40;6.97;;;12.30;55.00;;;;;;345748;28;1071;-58
2023/11/07 00:35:12;;;;;;;12.48;7.38;;;12.40;55.00;;;;;;345649;28;1272;-58
2023/11/07 00:35:23;;;;;;;12.30;7.00;;;12.30;54.90;;;;;;345731;28;1039;-59
2023/11/07 00:35:34;;;;;;;13.77;6.90;;;12.30;54.90;;;;;;345747;28;900;-59
2023/11/07 00:35:45;;;;;;;12.30;6.32;;;12.30;54.80;;;;;;345753;28;837;-59
2023/11/07 00:35:55;;;;;;;11.55;6.20;;;12.40;54.70;;;;;;345650;28;1433;-58
2023/11/07 00:36:07;;;;;;;10.27;5.78;;;12.30;54.70;;;;;;345710;28;814;-59
2023/11/07 00:36:17;;;;;;;9.82;5.88;;;12.30;54.70;;;;;;345731;28;1094;-59
2023/11/07 00:36:28;;;;;;;9.63;5.82;;;12.30;54.70;;;;;;345653;28;1095;-58
2023/11/07 00:36:39;;;;;;;8.43;5.93;;;12.30;54.70;;;;;;345588;28;1019;-57
2023/11/07 00:36:50;;;;;;;8.73;5.75;;;12.30;54.70;;;;;;345639;28;1064;-59
2023/11/07 00:37:00;;;;;;;10.35;6.25;;;12.30;54.70;;;;;;345709;28;1127;-59
2023/11/07 00:37:11;;;;;;;11.60;6.20;;;12.30;54.70;;;;;;345713;28;1023;-58
2023/11/07 00:37:23;;;;;;;11.35;5.88;;;12.40;54.80;;;;;;345651;28;1024;-58
2023/11/07 00:37:34;;;;;;;9.25;5.30;;;12.30;54.80;;;;;;345671;28;1459;-59
2023/11/07 00:37:44;;;;;;;8.75;5.45;;;12.30;54.90;;;;;;345673;28;1287;-58
2023/11/07 00:37:57;;;;;;;8.65;5.55;;;12.30;54.80;;;;;;345691;28;1092;-58
2023/11/07 00:38:08;;;;;;;9.50;5.57;;;12.30;54.90;;;;;;345670;28;896;-58
2023/11/07 00:38:18;;;;;;;8.90;5.40;;;12.40;54.90;;;;;;345670;28;972;-59
2023/11/07 00:38:29;;;;;;;9.30;5.32;;;12.30;54.90;;;;;;345727;28;969;-57
2023/11/07 00:38:40;;;;;;;8.50;5.20;;;12.30;54.90;;;;;;345718;28;1091;-58
2023/11/07 00:38:50;;;;;;;9.23;5.38;;;12.30;55.00;;;;;;345590;28;1075;-60
2023/11/07 00:39:01;;;;;;;9.33;5.53;;;12.30;54.90;;;;;;345454;28;1169;-59
2023/11/07 00:39:16;;;;;;;9.88;5.63;;;12.30;54.90;;;;;;345732;28;992;-57
2023/11/07 00:39:26;;;;;;;10.38;5.70;;;12.30;54.80;;;;;;345691;28;1283;-59
2023/11/07 00:39:37;;;;;;;10.15;5.53;;;12.30;54.70;;;;;;345602;28;1032;-58
2023/11/07 00:39:48;;;;;;;10.50;5.27;;;12.30;54.70;;;;;;345758;28;937;-59
2023/11/07 00:39:59;;;;;;;9.85;5.20;;;12.40;54.60;;;;;;345682;28;892;-59
2023/11/07 00:40:10;;;;;;;9.85;5.30;;;12.30;54.60;;;;;;345700;28;1020;-59
2023/11/07 00:40:21;;;;;;;9.77;5.43;;;12.30;54.60;;;;;;345630;28;1028;-59
2023/11/07 00:40:31;;;;;;;9.75;5.38;;;12.30;54.70;;;;;;345681;28;909;-59
2023/11/07 00:40:42;;;;;;;10.00;5.50;;;12.30;54.70;;;;;;345747;28;964;-59
2023/11/07 00:40:53;;;;;;;10.85;5.78;;;12.40;54.80;;;;;;345691;28;842;-59
2023/11/07 00:41:04;;;;;;;12.07;5.97;;;12.40;54.90;;;;;;345565;28;1186;-58
2023/11/07 00:41:15;;;;;;;11.68;5.85;;;12.40;54.90;;;;;;345719;28;1398;-58
2023/11/07 00:41:26;;;;;;;10.90;5.77;;;12.40;55.00;;;;;;345635;28;1350;-56
2023/11/07 00:41:37;;;;;;;9.30;5.55;;;12.40;55.00;;;;;;345742;28;837;-59
2023/11/07 00:41:47;;;;;;;9.00;5.43;;;12.40;55.00;;;;;;345622;28;914;-59
2023/11/07 00:41:58;;;;;;;8.65;5.15;;;12.30;55.00;;;;;;345692;28;972;-58
2023/11/07 00:42:09;;;;;;;8.38;5.13;;;12.30;54.90;;;;;;345697;28;821;-58
2023/11/07 00:42:20;;;;;;;8.40;5.03;;;12.40;54.90;;;;;;345698;28;1115;-59
2023/11/07 00:42:30;;;;;;;7.80;4.90;;;12.40;54.80;;;;;;345643;28;1053;-59
2023/11/07 00:42:41;;;;;;;8.40;4.90;;;12.30;54.70;;;;;;345696;28;861;-57
2023/11/07 00:42:52;;;;;;;8.88;5.13;;;12.30;54.60;;;;;;345732;28;928;-59
2023/11/07 00:43:03;;;;;;;10.00;5.40;;;12.30;54.60;;;;;;345680;28;1048;-58
2023/11/07 00:43:14;;;;;;;10.85;5.55;;;12.40;54.60;;;;;;345682;28;1604;-58
2023/11/07 00:43:25;;;;;;;12.35;5.45;;;12.40;54.70;;;;;;345728;28;1528;-58
2023/11/07 00:43:35;;;;;;;11.95;5.53;;;12.30;54.90;;;;;;345737;28;1008;-57
2023/11/07 00:43:47;;;;;;;10.70;5.40;;;12.40;55.00;;;;;;345674;28;1108;-57
2023/11/07 00:44:00;;;;;;;8.63;5.35;;;12.30;55.10;;;;;;345647;28;1961;-58
2023/11/07 00:44:10;;;;;;;7.97;4.95;;;12.30;55.10;;;;;;345753;28;930;-60
2023/11/07 00:44:21;;;;;;;7.43;4.85;;;12.30;55.10;;;;;;345663;28;1506;-58
2023/11/07 00:44:32;;;;;;;9.60;4.97;;;12.40;55.20;;;;;;345663;28;980;-58
2023/11/07 00:44:44;;;;;;;9.98;5.10;;;12.40;55.00;;;;;;345577;28;940;-57
2023/11/07 00:44:54;;;;;;;10.60;5.28;;;12.30;54.90;;;;;;345723;28;1040;-58
2023/11/07 00:45:05;;;;;;;8.55;5.03;;;12.40;54.90;;;;;;345725;28;853;-59
2023/11/07 00:45:16;;;;;;;8.90;4.68;;;12.30;54.80;;;;;;345678;28;1026;-58
2023/11/07 00:45:27;;;;;;;8.30;4.50;;;12.40;54.70;;;;;;345665;28;1159;-58
2023/11/07 00:45:37;;;;;;;8.03;4.03;;;12.30;54.50;;;;;;345697;28;1015;-58
2023/11/07 00:45:48;;;;;;;6.47;3.67;;;12.30;54.40;;;;;;345544;28;1157;-59
2023/11/07 00:45:59;;;;;;;5.78;3.40;;;12.30;54.10;;;;;;345718;28;995;-58
2023/11/07 00:46:10;;;;;;;6.38;3.72;;;12.30;53.80;;;;;;345675;28;1249;-58
2023/11/07 00:46:21;;;;;;;7.37;4.07;;;12.30;53.70;;;;;;345615;28;1012;-59
2023/11/07 00:46:32;;;;;;;8.05;4.32;;;12.30;53.70;;;;;;345669;28;1296;-60
2023/11/07 00:46:43;;;;;;;8.70;4.63;;;12.30;53.80;;;;;;345703;28;1032;-58
2023/11/07 00:46:54;;;;;;;8.57;4.63;;;12.30;53.90;;;;;;345664;28;920;-58
2023/11/07 00:47:05;;;;;;;7.55;4.40;;;12.30;53.60;;;;;;346039;28;973;-59
2023/11/07 00:47:16;;;;;;;6.55;3.80;;;12.30;53.30;;;;;;346140;28;1752;-58
2023/11/07 00:47:27;;;;;;;6.63;3.63;;;12.30;53.10;;;;;;345977;28;985;-58
2023/11/07 00:47:37;;;;;;;7.03;3.65;;;12.30;53.10;;;;;;345980;28;972;-58
2023/11/07 00:47:48;;;;;;;9.93;4.13;;;12.30;53.20;;;;;;346144;28;823;-59
2023/11/07 00:47:59;;;;;;;10.60;4.30;;;12.30;53.40;;;;;;346159;28;1140;-57
2023/11/07 00:48:10;;;;;;;10.50;4.20;;;12.30;53.40;;;;;;346048;28;1516;-57
2023/11/07 00:48:21;;;;;;;9.32;3.90;;;12.30;53.50;;;;;;345990;28;1187;-58
2023/11/07 00:48:32;;;;;;;9.40;3.80;;;12.30;53.90;;;;;;346050;28;1816;-58
2023/11/07 00:48:43;;;;;;;8.87;4.00;;;12.30;53.70;;;;;;346001;28;834;-57
2023/11/07 00:48:53;;;;;;;8.30;4.05;;;12.30;53.60;;;;;;346188;28;1011;-58
2023/11/07 00:49:05;;;;;;;7.40;3.97;;;12.30;53.40;;;;;;345985;28;951;-58
2023/11/07 00:49:15;;;;;;;8.38;4.10;;;12.30;53.30;;;;;;346105;28;1409;-58
2023/11/07 00:49:27;;;;;;;8.07;4.10;;;12.30;53.50;;;;;;346087;28;1224;-58
2023/11/07 00:49:38;;;;;;;8.40;4.20;;;12.30;53.60;;;;;;345708;28;883;-60
2023/11/07 00:49:49;;;;;;;8.30;3.92;;;12.30;53.60;;;;;;346050;28;1056;-58
2023/11/07 00:50:00;;;;;;;7.72;3.60;;;12.30;53.40;;;;;;346193;28;806;-58
2023/11/07 00:50:10;;;;;;;6.63;3.50;;;12.30;53.20;;;;;;345802;28;1020;-60
2023/11/07 00:50:21;;;;;;;5.13;3.27;;;12.30;53.00;;;;;;345660;28;1036;-57
2023/11/07 00:50:34;;;;;;;4.57;3.10;;;12.30;53.00;;;;;;345726;28;838;-58
2023/11/07 00:50:45;;;;;;;4.28;2.63;;;12.20;52.80;;;;;;345530;28;1376;-58
2023/11/07 00:50:55;;;;;;;4.97;2.47;;;12.30;52.90;;;;;;345610;28;924;-58
2023/11/07 00:51:07;;;;;;;4.95;2.45;;;12.30;52.80;;;;;;345502;28;912;-58
2023/11/07 00:51:18;;;;;;;5.38;2.45;;;12.30;52.70;;;;;;345557;28;1023;-58
2023/11/07 00:51:29;;;;;;;5.25;2.42;;;12.30;52.50;;;;;;345637;28;895;-58
2023/11/07 00:51:39;;;;;;;5.53;2.45;;;12.30;52.50;;;;;;345600;28;1015;-58
2023/11/07 00:51:51;;;;;;;4.78;2.28;;;12.30;52.40;;;;;;345523;28;1004;-57
2023/11/07 00:52:01;;;;;;;4.68;2.17;;;12.30;52.30;;;;;;345586;28;1198;-58
2023/11/07 00:52:12;;;;;;;5.32;2.05;;;12.30;52.20;;;;;;345620;28;818;-58
2023/11/07 00:52:23;;;;;;;5.22;2.10;;;12.30;52.10;;;;;;345526;28;1167;-58
2023/11/07 00:52:34;;;;;;;5.30;2.20;;;12.30;52.00;;;;;;345488;28;1483;-59
2023/11/07 00:52:44;;;;;;;5.03;2.20;;;12.30;51.80;;;;;;345697;28;1281;-58
2023/11/07 00:52:55;;;;;;;4.93;2.15;;;12.30;51.70;;;;;;345660;28;881;-58
2023/11/07 00:53:06;;;;;;;5.75;2.05;;;12.30;51.90;;;;;;345727;28;1580;-57
2023/11/07 00:53:16;;;;;;;5.13;2.07;;;12.30;52.10;;;;;;345533;28;1480;-58
2023/11/07 00:53:27;;;;;;;5.03;2.00;;;12.30;51.90;;;;;;345699;28;1032;-58
2023/11/07 00:53:38;;;;;;;3.80;2.00;;;12.30;51.90;;;;;;345703;28;972;-58
2023/11/07 00:53:50;;;;;;;3.55;1.90;;;12.30;51.70;;;;;;345654;28;1123;-58
2023/11/07 00:54:00;;;;;;;3.97;1.95;;;12.30;51.60;;;;;;345624;28;1071;-57
2023/11/07 00:54:13;;;;;;;3.73;1.80;;;12.30;51.60;;;;;;345711;28;1013;-59
2023/11/07 00:54:24;;;;;;;4.10;1.98;;;12.30;51.50;;;;;;345666;28;1737;-58
2023/11/07 00:54:35;;;;;;;4.47;2.03;;;12.30;51.30;;;;;;345649;28;1155;-56
2023/11/07 00:54:46;;;;;;;4.18;2.00;;;12.30;51.50;;;;;;345623;28;1018;-58
2023/11/07 00:54:57;;;;;;;3.50;1.90;;;12.30;51.80;;;;;;345696;28;1070;-58
2023/11/07 00:55:08;;;;;;;3.63;1.95;;;12.30;51.60;;;;;;345663;28;836;-59
2023/11/07 00:55:19;;;;;;;5.05;2.08;;;12.30;51.30;;;;;;345739;28;952;-58
2023/11/07 00:55:30;;;;;;;5.00;2.00;;;12.30;51.20;;;;;;345570;28;1167;-57
2023/11/07 00:55:40;;;;;;;4.45;1.98;;;12.30;51.20;;;;;;345748;28;909;-58
2023/11/07 00:55:51;;;;;;;4.03;2.05;;;12.40;51.20;;;;;;345655;28;997;-58
2023/11/07 00:56:03;;;;;;;4.00;1.98;;;12.30;51.20;;;;;;345660;28;1564;-59
2023/11/07 00:56:14;;;;;;;3.78;1.85;;;12.30;51.20;;;;;;345645;28;1027;-58
2023/11/07 00:56:24;;;;;;;3.22;1.70;;;12.30;51.20;;;;;;345689;28;1063;-58
2023/11/07 00:56:35;;;;;;;4.40;1.70;;;12.30;51.20;;;;;;345635;28;948;-58
2023/11/07 00:56:46;;;;;;;4.05;1.60;;;12.40;51.20;;;;;;345678;28;1012;-58
2023/11/07 00:56:57;;;;;;;4.03;1.53;;;12.30;51.10;;;;;;345604;28;1040;-57
2023/11/07 00:57:09;;;;;;;3.42;1.58;;;12.30;51.00;;;;;;345751;28;905;-57
2023/11/07 00:57:20;;;;;;;4.78;1.60;;;12.40;50.90;;;;;;345716;28;1067;-57
2023/11/07 00:57:31;;;;;;;5.40;1.80;;;12.30;50.80;;;;;;345716;28;1048;-58
2023/11/07 00:57:42;;;;;;;5.03;1.87;;;12.30;51.10;;;;;;345588;28;1171;-59
2023/11/07 00:57:53;;;;;;;5.03;1.90;;;12.30;50.90;;;;;;345676;28;1159;-59
2023/11/07 00:58:04;;;;;;;4.40;1.67;;;12.40;50.70;;;;;;345725;28;830;-59
2023/11/07 00:58:14;;;;;;;4.20;1.50;;;12.40;50.80;;;;;;345694;28;965;-58
2023/11/07 00:58:25;;;;;;;3.22;1.50;;;12.30;50.60;;;;;;345566;28;1143;-58
2023/11/07 00:58:36;;;;;;;3.07;1.53;;;12.40;50.50;;;;;;345719;28;1442;-58
2023/11/07 00:58:47;;;;;;;2.95;1.55;;;12.30;50.70;;;;;;345656;28;1155;-58